Algernon, Nebraska
Current Conditions -  °F | °C
As of 2:53 PM on Wednesday 26 Nov 2014 (Local Time) from KBBW Reporting Station
Broken Clouds Broken Clouds  
Wind Chill: 19°   Ceiling: 11000
Heat Index: 31°   Visibility: 10mi
Dew Point: 18°   Wind: 17mph
Humidity: 59%   Direction: 340°NNW
Pressure: 30.26"   Gusts: NA
Location:  41.1632°N, 99.3112°W
Report Text: KBBW 262053Z AUTO 34015KT 10SM BKN110 M01/M08 A3026 RMK AO2 SLP270 T10061078 53004
Loading
Personal Weather Stations






























Interactive Weather Map New forecast layout! Learn more

10-Day Weather Forecast

Advertisements
Track Severe Weather on mobile